Time;durP1;ratioP1;P1;durP2;ratioP2;P2;SDS_P1;SDS_P2;PMS_P1;PMS_P2;Temp;Humidity;BMP_temperature;BMP_pressure;BME280_temperature;BME280_humidity;BME280_pressure;Samples;Min_cycle;Max_cycle;Signal;HPM_P1;HPM_P2
2021/01/11 00:02:44;;;;;;;26.20;8.70;;;;;;;-2.65;54.53;99194.00;10456313;28;20088;-51
2021/01/11 00:07:46;;;;;;;26.63;10.18;;;;;;;-2.69;54.28;99193.31;10455864;28;20243;-49
2021/01/11 00:12:48;;;;;;;23.42;10.00;;;;;;;-2.73;54.82;99186.63;10460449;28;20048;-49
2021/01/11 00:17:50;;;;;;;25.20;10.13;;;;;;;-2.68;54.70;99189.84;10462999;28;20375;-50
2021/01/11 00:22:52;;;;;;;25.42;9.90;;;;;;;-2.58;54.21;99187.75;10464118;28;20056;-48
2021/01/11 00:27:54;;;;;;;24.67;9.73;;;;;;;-2.53;54.23;99172.94;10462907;28;20048;-49
2021/01/11 00:32:56;;;;;;;17.85;7.28;;;;;;;-2.60;54.30;99169.78;10462483;28;20090;-49
2021/01/11 00:37:58;;;;;;;19.88;9.02;;;;;;;-2.68;54.51;99171.84;10463224;28;20059;-50
2021/01/11 00:43:00;;;;;;;24.92;10.27;;;;;;;-2.65;54.31;99166.56;10462116;28;20460;-49
2021/01/11 00:48:02;;;;;;;23.70;9.70;;;;;;;-2.69;54.22;99164.16;10473357;28;20074;-48
2021/01/11 00:53:04;;;;;;;21.00;8.57;;;;;;;-2.66;54.26;99161.47;10461563;28;20468;-49
2021/01/11 00:58:07;;;;;;;20.58;8.43;;;;;;;-2.67;54.46;99162.38;10461588;28;20099;-48
2021/01/11 01:03:15;;;;;;;22.95;9.60;;;;;;;-2.68;54.56;99170.97;10460540;28;20064;-49
2021/01/11 01:08:16;;;;;;;20.13;8.07;;;;;;;-2.63;54.38;99169.06;10462418;28;20206;-51
2021/01/11 01:13:19;;;;;;;19.95;8.27;;;;;;;-2.54;54.29;99171.28;10461566;28;20048;-49
2021/01/11 01:18:21;;;;;;;23.23;9.47;;;;;;;-2.50;54.18;99172.00;10460748;28;20052;-48
2021/01/11 01:23:22;;;;;;;19.90;8.77;;;;;;;-2.45;54.06;99178.63;10459841;28;20052;-50
2021/01/11 01:28:25;;;;;;;22.88;9.63;;;;;;;-2.42;53.90;99180.25;10460879;28;20069;-50
2021/01/11 01:33:27;;;;;;;22.53;9.37;;;;;;;-2.56;54.22;99175.63;10468293;28;20061;-49
2021/01/11 01:38:29;;;;;;;24.40;9.30;;;;;;;-2.55;54.28;99177.34;10461772;28;20052;-49
2021/01/11 01:43:31;;;;;;;19.92;9.10;;;;;;;-2.45;53.79;99175.22;10460437;28;20493;-52
2021/01/11 01:48:35;;;;;;;25.90;9.00;;;;;;;-2.45;54.05;99176.06;10459991;28;20068;-50
2021/01/11 01:53:36;;;;;;;21.42;8.48;;;;;;;-2.49;54.14;99182.25;10459642;28;20194;-49
2021/01/11 01:58:40;;;;;;;23.02;8.73;;;;;;;-2.42;53.79;99182.81;10459453;28;20068;-48
2021/01/11 02:03:41;;;;;;;21.58;8.73;;;;;;;-2.40;53.98;99187.00;10458917;28;20060;-48
2021/01/11 02:08:50;;;;;;;25.45;9.20;;;;;;;-2.43;54.09;99182.00;10458799;28;20059;-49
2021/01/11 02:14:15;;;;;;;18.48;7.97;;;;;;;-2.41;53.98;99174.19;10459104;28;20071;-49
2021/01/11 02:19:41;;;;;;;26.77;9.98;;;;;;;-2.42;54.09;99177.66;10460589;28;20072;-50
2021/01/11 02:25:22;;;;;;;25.48;9.85;;;;;;;-2.36;54.01;99183.41;10461921;28;20546;-50
2021/01/11 02:30:31;;;;;;;24.80;10.65;;;;;;;-2.39;53.88;99188.69;10458722;28;20053;-49
2021/01/11 02:36:00;;;;;;;21.45;9.50;;;;;;;-2.45;54.11;99181.19;10458088;28;20098;-48
2021/01/11 02:41:02;;;;;;;25.70;9.48;;;;;;;-2.49;54.04;99187.38;10458249;28;20099;-48
2021/01/11 02:46:05;;;;;;;28.60;10.38;;;;;;;-2.48;53.89;99178.75;10457789;28;20083;-48
2021/01/11 02:51:18;;;;;;;30.23;11.30;;;;;;;-2.49;53.92;99189.97;10457994;28;20045;-49
2021/01/11 02:56:27;;;;;;;30.08;10.75;;;;;;;-2.47;53.88;99185.56;10457998;28;20052;-48
2021/01/11 03:01:36;;;;;;;21.05;8.93;;;;;;;-2.51;54.01;99188.34;10448779;28;20058;-49
2021/01/11 03:06:38;;;;;;;25.77;9.65;;;;;;;-2.47;54.23;99185.56;10417104;28;20053;-48
2021/01/11 03:11:39;;;;;;;24.17;11.20;;;;;;;-2.40;53.97;99181.00;10416697;28;20500;-48
2021/01/11 03:16:42;;;;;;;30.08;10.90;;;;;;;-2.36;53.88;99185.97;10418113;28;20041;-48
2021/01/11 03:21:44;;;;;;;26.02;11.02;;;;;;;-2.40;53.77;99186.16;10460269;28;20049;-55
2021/01/11 03:26:46;;;;;;;29.70;10.93;;;;;;;-2.51;53.88;99184.03;10456902;28;20052;-49
2021/01/11 03:31:49;;;;;;;25.77;10.57;;;;;;;-2.58;54.34;99190.31;10455804;28;20053;-48
2021/01/11 03:36:50;;;;;;;24.23;10.38;;;;;;;-2.56;54.08;99196.22;10456746;28;20049;-48
2021/01/11 03:41:52;;;;;;;30.05;9.55;;;;;;;-2.49;53.91;99191.66;10456629;28;20048;-48
2021/01/11 03:46:55;;;;;;;25.38;10.52;;;;;;;-2.60;53.97;99197.25;10459483;28;20048;-48
2021/01/11 03:52:01;;;;;;;25.10;9.93;;;;;;;-2.65;54.25;99197.44;10464221;28;20053;-48
2021/01/11 03:57:02;;;;;;;21.55;9.82;;;;;;;-2.71;54.17;99191.69;10463953;28;20037;-48
2021/01/11 04:02:05;;;;;;;25.58;10.40;;;;;;;-2.76;54.45;99188.47;10462790;28;20068;-49
2021/01/11 04:07:07;;;;;;;25.88;10.80;;;;;;;-2.74;54.38;99199.53;10463218;28;20080;-48
2021/01/11 04:12:08;;;;;;;25.55;9.52;;;;;;;-2.72;54.07;99195.16;10461943;28;20132;-49
2021/01/11 04:17:11;;;;;;;29.52;10.80;;;;;;;-2.62;53.90;99197.34;10462798;28;20452;-49
2021/01/11 04:22:13;;;;;;;27.73;10.43;;;;;;;-2.52;53.81;99208.09;10463811;28;20102;-49
2021/01/11 04:27:15;;;;;;;31.33;10.63;;;;;;;-2.65;53.97;99217.19;10461887;28;20045;-49
2021/01/11 04:32:17;;;;;;;24.27;10.20;;;;;;;-2.75;53.98;99213.28;10462283;28;20049;-48
2021/01/11 04:37:19;;;;;;;26.17;9.37;;;;;;;-2.80;54.49;99224.59;10459555;28;20037;-48
2021/01/11 04:42:28;;;;;;;24.33;10.45;;;;;;;-2.80;54.48;99223.78;10464713;28;20439;-51
2021/01/11 04:47:31;;;;;;;27.50;11.40;;;;;;;-2.86;54.05;99224.84;10464830;28;20049;-52
2021/01/11 04:52:33;;;;;;;26.88;11.23;;;;;;;-2.90;54.24;99230.97;10462667;28;20044;-49
2021/01/11 04:57:36;;;;;;;20.25;9.80;;;;;;;-2.93;54.19;99236.22;10462690;28;20055;-49
2021/01/11 05:02:44;;;;;;;30.63;10.00;;;;;;;-2.88;54.47;99236.91;10463383;28;20060;-49
2021/01/11 05:07:45;;;;;;;28.38;9.52;;;;;;;-2.84;54.20;99245.34;10463323;28;20505;-50
2021/01/11 05:12:53;;;;;;;23.30;8.93;;;;;;;-2.81;54.26;99250.38;10466073;28;20060;-49
2021/01/11 05:17:57;;;;;;;29.05;10.77;;;;;;;-2.74;54.15;99259.56;10466274;28;20044;-48
2021/01/11 05:23:07;;;;;;;28.40;11.70;;;;;;;-2.64;54.02;99254.91;10464680;28;20104;-49
2021/01/11 05:28:11;;;;;;;28.33;10.25;;;;;;;-2.56;53.70;99260.56;10466481;28;20052;-49
2021/01/11 05:33:18;;;;;;;;;;;;;;;-2.56;54.12;99260.56;10463567;28;20052;-48
2021/01/11 05:38:20;;;;;;;25.98;9.73;;;;;;;-2.61;54.06;99270.22;10462311;28;20015;-48
2021/01/11 05:43:22;;;;;;;24.48;10.40;;;;;;;-2.67;54.06;99270.44;10463055;28;20371;-47
2021/01/11 05:48:25;;;;;;;29.13;10.73;;;;;;;-2.67;54.38;99275.59;10461817;28;20059;-53
2021/01/11 05:53:27;;;;;;;24.65;10.43;;;;;;;-2.55;54.03;99285.41;10461283;28;20049;-47
2021/01/11 05:58:29;;;;;;;25.15;10.02;;;;;;;-2.52;53.99;99290.44;10461159;28;20055;-48
2021/01/11 06:03:31;;;;;;;25.92;10.07;;;;;;;-2.43;53.95;99289.22;10461300;28;20091;-48
2021/01/11 06:08:33;;;;;;;26.70;10.13;;;;;;;-2.28;53.64;99285.22;10460898;28;20492;-48
2021/01/11 06:13:36;;;;;;;26.83;9.40;;;;;;;-2.22;53.43;99272.13;10462530;28;20127;-49
2021/01/11 06:18:39;;;;;;;28.73;10.10;;;;;;;-2.30;53.68;99269.03;10461895;28;20087;-48
2021/01/11 06:23:41;;;;;;;24.10;10.30;;;;;;;-2.22;53.67;99266.97;10460272;28;20049;-48
2021/01/11 06:28:43;;;;;;;31.42;10.35;;;;;;;-2.24;53.48;99273.94;10460019;28;20041;-48
2021/01/11 06:33:46;;;;;;;27.23;10.75;;;;;;;-2.28;53.72;99277.50;10460170;28;20053;-49
2021/01/11 06:38:48;;;;;;;25.13;10.50;;;;;;;-2.35;53.98;99280.31;10458305;28;20564;-49
2021/01/11 06:43:52;;;;;;;19.07;8.47;;;;;;;-2.25;54.06;99267.09;10459956;28;20144;-48
2021/01/11 06:48:54;;;;;;;;;;;;;;;-2.27;54.19;99274.06;10459193;28;20045;-50
2021/01/11 06:54:07;;;;;;;29.10;10.15;;;;;;;-2.26;54.13;99278.28;10458679;28;19936;-52
2021/01/11 06:59:11;;;;;;;29.05;9.75;;;;;;;-2.24;54.18;99277.34;10459103;28;20044;-49
2021/01/11 07:04:36;;;;;;;23.27;9.68;;;;;;;-2.24;54.28;99282.47;10459166;28;20040;-49
2021/01/11 07:09:49;;;;;;;29.98;10.65;;;;;;;-2.26;54.03;99280.88;10458905;28;20049;-49
2021/01/11 07:14:59;;;;;;;28.80;10.27;;;;;;;-2.28;54.30;99277.50;10461303;28;20056;-48
2021/01/11 07:20:02;;;;;;;22.63;8.70;;;;;;;-2.18;53.90;99276.25;10461303;28;20064;-48
2021/01/11 07:25:08;;;;;;;19.63;7.67;;;;;;;-2.11;54.04;99264.81;10459170;28;20036;-49
2021/01/11 07:30:11;;;;;;;27.48;8.93;;;;;;;-2.05;53.81;99269.72;10459916;28;20128;-47
2021/01/11 07:35:13;;;;;;;24.13;9.98;;;;;;;-2.07;53.97;99271.50;10458714;28;20098;-48
2021/01/11 07:40:16;;;;;;;25.98;9.07;;;;;;;-2.06;54.25;99267.19;10457984;28;20052;-49
2021/01/11 07:45:18;;;;;;;18.30;7.10;;;;;;;-1.94;54.14;99272.69;10458772;28;20075;-49
2021/01/11 07:50:28;;;;;;;;;;;;;;;-1.77;53.96;99276.31;10457741;28;20044;-48
2021/01/11 07:55:33;;;;;;;20.63;8.98;;;;;;;-1.60;53.70;99279.03;10458139;28;19977;-48
2021/01/11 08:00:35;;;;;;;25.55;8.93;;;;;;;-1.37;53.30;99266.88;10457856;28;20061;-49
2021/01/11 08:05:38;;;;;;;29.35;10.98;;;;;;;-1.38;53.46;99265.22;10457101;28;20535;-48
2021/01/11 08:10:39;;;;;;;21.43;8.10;;;;;;;-1.32;53.48;99263.22;10457523;28;20074;-49
2021/01/11 08:15:41;;;;;;;26.60;10.10;;;;;;;-1.13;53.16;99259.81;10457177;28;20068;-50
2021/01/11 08:20:44;;;;;;;28.25;10.45;;;;;;;-1.14;53.26;99252.97;10457070;28;20180;-48
2021/01/11 08:25:45;;;;;;;25.70;9.10;;;;;;;-1.02;52.93;99257.56;10456938;28;20049;-47
2021/01/11 08:30:47;;;;;;;24.42;9.98;;;;;;;-0.98;53.12;99249.66;10457085;28;20461;-48
2021/01/11 08:35:50;;;;;;;25.73;9.65;;;;;;;-1.03;52.71;99246.44;10464260;28;20051;-49
2021/01/11 08:40:51;;;;;;;25.35;10.95;;;;;;;-1.02;53.41;99245.50;10464492;28;20508;-48
2021/01/11 08:45:54;;;;;;;23.55;9.68;;;;;;;-0.79;53.36;99244.47;10463811;28;20060;-49
2021/01/11 08:50:59;;;;;;;33.22;10.45;;;;;;;-0.66;53.14;99243.91;10464077;28;20117;-49
2021/01/11 08:56:04;;;;;;;25.25;9.93;;;;;;;-0.58;53.15;99242.66;10463628;28;20493;-48
2021/01/11 09:01:10;;;;;;;28.02;10.60;;;;;;;-0.43;52.70;99250.56;10463609;28;20068;-48
2021/01/11 09:06:12;;;;;;;28.70;12.07;;;;;;;-0.30;52.47;99239.59;10465458;28;20051;-48
2021/01/11 09:11:14;;;;;;;23.50;10.38;;;;;;;-0.24;52.08;99236.72;10464402;28;20132;-49
2021/01/11 09:16:17;;;;;;;28.15;12.88;;;;;;;-0.29;52.58;99241.25;10462643;28;20045;-48
2021/01/11 09:21:25;;;;;;;25.95;10.63;;;;;;;-0.19;52.33;99230.47;10462472;28;20524;-50
2021/01/11 09:26:27;;;;;;;23.13;10.77;;;;;;;-0.14;52.26;99236.28;10463539;28;20087;-49
2021/01/11 09:31:28;;;;;;;23.45;9.52;;;;;;;-0.17;52.57;99226.09;10464138;28;20072;-48
2021/01/11 09:36:33;;;;;;;25.75;11.07;;;;;;;-0.08;52.13;99221.28;10462504;28;20049;-51
2021/01/11 09:41:40;;;;;;;26.20;9.98;;;;;;;0.09;51.74;99217.03;10462019;28;20067;-49
2021/01/11 09:46:46;;;;;;;27.65;11.57;;;;;;;0.23;51.90;99207.66;10461653;28;20056;-47
2021/01/11 09:51:49;;;;;;;26.02;11.65;;;;;;;0.22;51.93;99202.59;10462103;28;20049;-48
2021/01/11 09:56:51;;;;;;;26.55;11.13;;;;;;;0.21;51.93;99201.72;10460157;28;20064;-49
2021/01/11 10:01:54;;;;;;;30.20;10.32;;;;;;;0.25;51.82;99204.16;10461037;28;20065;-48
2021/01/11 10:06:58;;;;;;;22.15;8.65;;;;;;;0.26;51.87;99209.28;10460203;28;20044;-48
2021/01/11 10:12:00;;;;;;;26.98;10.52;;;;;;;0.35;51.46;99197.63;10460620;28;20110;-49
2021/01/11 10:17:02;;;;;;;25.85;11.10;;;;;;;0.51;51.11;99197.66;10460530;28;20057;-51
2021/01/11 10:22:05;;;;;;;25.83;10.27;;;;;;;0.52;51.42;99194.16;10460652;28;20148;-48
2021/01/11 10:27:06;;;;;;;29.05;12.88;;;;;;;0.59;50.98;99195.53;10460314;28;20078;-48
2021/01/11 10:32:08;;;;;;;27.35;11.23;;;;;;;0.57;51.03;99179.25;10460993;28;20045;-54
2021/01/11 10:37:10;;;;;;;28.77;11.45;;;;;;;0.66;50.85;99171.00;10460628;28;20037;-48
2021/01/11 10:42:12;;;;;;;29.13;10.55;;;;;;;0.67;51.12;99170.06;10459195;28;20060;-48
2021/01/11 10:47:14;;;;;;;22.50;10.07;;;;;;;0.76;50.79;99172.16;10459319;28;20570;-49
2021/01/11 10:52:16;;;;;;;21.58;9.63;;;;;;;0.87;50.58;99175.03;10459530;28;20508;-48
2021/01/11 10:57:18;;;;;;;29.35;10.93;;;;;;;0.75;50.45;99175.69;10457872;28;20147;-49
2021/01/11 11:02:20;;;;;;;21.10;10.93;;;;;;;0.69;50.64;99176.00;10459746;28;20453;-49
2021/01/11 11:07:22;;;;;;;26.95;10.32;;;;;;;0.42;51.02;99179.13;10458919;28;20037;-49
2021/01/11 11:12:24;;;;;;;21.15;9.65;;;;;;;0.41;51.30;99182.63;10459192;28;20067;-49
2021/01/11 11:17:26;;;;;;;36.53;12.45;;;;;;;0.41;50.59;99187.81;10459361;28;20041;-48
2021/01/11 11:22:36;;;;;;;29.20;12.98;;;;;;;0.29;51.01;99193.59;10458417;28;20451;-50
2021/01/11 11:27:37;;;;;;;29.00;13.25;;;;;;;0.25;50.85;99189.50;10458310;28;20144;-48
2021/01/11 11:32:45;;;;;;;30.20;11.82;;;;;;;0.14;50.65;99192.63;10457715;28;20197;-48
2021/01/11 11:37:48;;;;;;;30.55;10.82;;;;;;;0.00;50.62;99202.84;10458467;28;20139;-48
2021/01/11 11:42:50;;;;;;;29.65;12.43;;;;;;;-0.24;51.01;99200.53;10458318;28;20076;-48
2021/01/11 11:47:52;;;;;;;30.80;12.20;;;;;;;-0.23;51.27;99211.72;10457699;28;20056;-48
2021/01/11 11:52:55;;;;;;;31.65;12.68;;;;;;;-0.24;51.21;99204.88;10457788;28;20053;-49
2021/01/11 11:57:56;;;;;;;23.88;9.43;;;;;;;-0.31;51.19;99203.50;10457835;28;20385;-49
2021/01/11 12:02:58;;;;;;;29.83;12.45;;;;;;;-0.35;51.26;99202.81;10458100;28;20061;-49
2021/01/11 12:08:00;;;;;;;32.65;12.63;;;;;;;-0.45;51.32;99200.75;10461859;28;20048;-49
2021/01/11 12:13:02;;;;;;;28.38;12.45;;;;;;;-0.57;51.22;99203.00;10466407;28;20083;-48
2021/01/11 12:18:04;;;;;;;36.67;13.52;;;;;;;-0.60;51.42;99198.00;10465332;28;20532;-48
2021/01/11 12:23:07;;;;;;;29.13;11.25;;;;;;;-0.56;51.45;99203.84;10464756;28;20164;-48
2021/01/11 12:28:08;;;;;;;28.40;11.80;;;;;;;-0.63;51.22;99208.47;10465114;28;20417;-49
2021/01/11 12:33:10;;;;;;;29.25;11.18;;;;;;;-0.69;51.45;99203.59;10464530;28;20095;-49
2021/01/11 12:38:13;;;;;;;29.38;13.32;;;;;;;-0.79;51.59;99203.19;10464559;28;20458;-49
2021/01/11 12:43:14;;;;;;;28.77;11.70;;;;;;;-0.83;51.38;99211.13;10464521;28;20048;-49
2021/01/11 12:48:16;;;;;;;28.42;12.40;;;;;;;-0.86;51.72;99217.28;10463122;28;20548;-48
2021/01/11 12:53:19;;;;;;;34.10;13.48;;;;;;;-0.83;51.66;99206.81;10464308;28;20504;-49
2021/01/11 12:58:20;;;;;;;27.20;11.52;;;;;;;-0.83;51.67;99209.41;10466223;28;20072;-48
2021/01/11 13:03:22;;;;;;;26.33;11.73;;;;;;;-0.89;51.58;99216.56;10463923;28;20452;-49
2021/01/11 13:08:25;;;;;;;34.70;13.88;;;;;;;-0.83;51.65;99213.72;10463200;28;20102;-49
2021/01/11 13:13:26;;;;;;;32.70;13.57;;;;;;;-0.83;51.47;99205.97;10463381;28;20413;-49
2021/01/11 13:18:28;;;;;;;28.20;11.00;;;;;;;-0.85;51.35;99218.13;10462036;28;20069;-50
2021/01/11 13:23:30;;;;;;;25.90;12.07;;;;;;;-0.94;51.51;99222.78;10462673;28;20080;-48
2021/01/11 13:28:32;;;;;;;27.00;12.82;;;;;;;-1.00;51.95;99225.66;10462367;28;20496;-47
2021/01/11 13:33:34;;;;;;;27.48;11.70;;;;;;;-0.96;51.83;99218.59;10462200;28;20074;-47
2021/01/11 13:38:37;;;;;;;26.42;12.27;;;;;;;-1.01;51.67;99223.97;10464666;28;20154;-49
2021/01/11 13:43:38;;;;;;;31.42;11.80;;;;;;;-1.11;52.45;99220.13;10462160;28;20056;-48
2021/01/11 13:48:40;;;;;;;28.80;10.57;;;;;;;-1.25;52.05;99225.91;10462275;28;20107;-49
2021/01/11 13:53:43;;;;;;;25.08;10.32;;;;;;;-1.44;52.63;99218.16;10461688;28;20548;-48
2021/01/11 13:58:45;;;;;;;25.38;11.68;;;;;;;-1.45;52.72;99219.06;10461435;28;20094;-48
2021/01/11 14:03:47;;;;;;;29.73;10.93;;;;;;;-1.45;52.56;99221.66;10462066;28;20486;-49
2021/01/11 14:08:49;;;;;;;29.25;11.88;;;;;;;-1.52;53.13;99221.97;10464433;28;20044;-47
2021/01/11 14:13:51;;;;;;;26.15;10.23;;;;;;;-1.49;52.76;99222.66;10460593;28;20056;-47
2021/01/11 14:18:53;;;;;;;30.35;12.52;;;;;;;-1.43;52.74;99222.41;10460662;28;20124;-49
2021/01/11 14:23:59;;;;;;;28.80;9.65;;;;;;;-1.62;52.80;99224.94;10460603;28;20059;-48
2021/01/11 14:29:01;;;;;;;25.83;10.85;;;;;;;-1.64;53.04;99219.00;10460400;28;20378;-48
2021/01/11 14:34:03;;;;;;;26.17;11.10;;;;;;;-1.57;53.05;99229.91;10460210;28;20084;-49
2021/01/11 14:39:06;;;;;;;31.02;11.23;;;;;;;-1.48;52.63;99220.94;10460192;28;20133;-49
2021/01/11 14:44:07;;;;;;;26.20;10.30;;;;;;;-1.42;52.69;99218.06;10460844;28;20057;-47
2021/01/11 14:49:09;;;;;;;21.83;11.00;;;;;;;-1.50;52.58;99215.84;10462950;28;20507;-55
2021/01/11 14:54:12;;;;;;;25.42;11.50;;;;;;;-1.52;52.88;99217.66;10461696;28;20413;-47
2021/01/11 14:59:13;;;;;;;22.95;8.60;;;;;;;-1.52;52.74;99215.06;10459168;28;20145;-48
2021/01/11 15:04:15;;;;;;;25.45;9.40;;;;;;;-1.56;52.91;99210.97;10458985;28;20059;-48
2021/01/11 15:09:19;;;;;;;21.63;8.68;;;;;;;-1.52;52.67;99207.34;10459227;28;20371;-51
2021/01/11 15:14:22;;;;;;;26.00;9.30;;;;;;;-1.37;52.42;99205.00;10458587;28;20063;-47
2021/01/11 15:19:24;;;;;;;19.33;6.75;;;;;;;-1.45;52.41;99211.34;10458499;28;20044;-48
2021/01/11 15:24:26;;;;;;;23.83;11.07;;;;;;;-1.51;52.79;99200.44;10458768;28;20060;-48
2021/01/11 15:29:28;;;;;;;32.30;12.60;;;;;;;-1.38;52.63;99200.75;10461434;28;20397;-48
2021/01/11 15:34:29;;;;;;;24.10;10.18;;;;;;;-1.42;52.54;99187.13;10460038;28;20049;-57
2021/01/11 15:39:32;;;;;;;29.58;10.82;;;;;;;-1.58;52.97;99197.28;10468578;28;20397;-51
2021/01/11 15:44:34;;;;;;;24.67;9.60;;;;;;;-1.47;52.64;99213.13;10505722;28;20063;-49
2021/01/11 15:49:35;;;;;;;24.33;9.95;;;;;;;-1.49;52.60;99206.38;10508717;28;20044;-49
2021/01/11 15:54:38;;;;;;;24.77;10.27;;;;;;;-1.38;52.55;99213.66;10508443;28;20052;-48
2021/01/11 15:59:39;;;;;;;25.52;11.45;;;;;;;-1.52;53.10;99217.66;10505754;28;20060;-48
2021/01/11 16:04:41;;;;;;;20.92;10.65;;;;;;;-1.45;52.82;99211.34;10460491;28;20053;-49
2021/01/11 16:09:44;;;;;;;24.80;10.52;;;;;;;-1.35;52.72;99216.09;10460220;28;20053;-49
2021/01/11 16:14:46;;;;;;;24.67;9.82;;;;;;;-1.26;52.44;99211.34;10461265;28;20076;-49
2021/01/11 16:19:47;;;;;;;23.45;9.82;;;;;;;-1.18;52.10;99211.84;10486638;28;20051;-48
2021/01/11 16:24:50;;;;;;;28.98;11.02;;;;;;;-1.33;52.65;99211.69;10460449;28;20048;-49
2021/01/11 16:29:52;;;;;;;25.63;11.40;;;;;;;-1.23;52.50;99207.78;10484958;28;20106;-48
2021/01/11 16:34:54;;;;;;;27.83;10.80;;;;;;;-1.22;52.33;99212.88;10476012;28;20048;-48
2021/01/11 16:39:58;;;;;;;21.90;10.02;;;;;;;-1.30;52.70;99221.88;10508528;28;20048;-48
2021/01/11 16:45:00;;;;;;;27.67;10.90;;;;;;;-1.38;52.67;99214.47;10492524;28;20045;-49
2021/01/11 16:50:02;;;;;;;33.92;12.20;;;;;;;-1.37;52.40;99215.31;10461690;28;20072;-50
2021/01/11 16:55:06;;;;;;;36.33;11.77;;;;;;;-1.44;52.66;99220.75;10462811;28;20420;-48
2021/01/11 17:00:09;;;;;;;28.60;10.20;;;;;;;-1.40;52.77;99217.13;10462739;28;20071;-50
2021/01/11 17:05:11;;;;;;;35.87;12.50;;;;;;;-1.26;52.69;99223.38;10461699;28;20053;-48
2021/01/11 17:10:14;;;;;;;26.77;10.60;;;;;;;-1.28;52.47;99217.47;10482340;28;20049;-48
2021/01/11 17:15:17;;;;;;;26.63;10.38;;;;;;;-1.25;52.52;99214.78;10503506;28;20067;-48
2021/01/11 17:20:19;;;;;;;28.50;10.32;;;;;;;-1.12;52.23;99209.91;10503475;28;20059;-49
2021/01/11 17:25:21;;;;;;;26.10;11.30;;;;;;;-1.13;52.44;99210.81;10470255;28;20053;-52
2021/01/11 17:30:23;;;;;;;25.67;10.57;;;;;;;-1.34;52.80;99210.03;10460043;28;20386;-49
2021/01/11 17:35:25;;;;;;;23.17;9.80;;;;;;;-1.25;52.45;99212.19;10461459;28;20134;-49
2021/01/11 17:40:28;;;;;;;29.30;11.80;;;;;;;-1.29;52.95;99216.66;10461211;28;20052;-48
2021/01/11 17:45:30;;;;;;;23.95;8.90;;;;;;;-1.21;53.01;99201.66;10461278;28;20481;-49
2021/01/11 17:50:31;;;;;;;21.15;9.55;;;;;;;-1.23;52.53;99195.75;10460757;28;20055;-50
2021/01/11 17:55:34;;;;;;;25.92;10.48;;;;;;;-1.20;52.81;99192.16;10460413;28;20057;-51
2021/01/11 18:00:36;;;;;;;28.40;11.10;;;;;;;-1.31;52.74;99197.00;10460442;28;20060;-50
2021/01/11 18:05:37;;;;;;;30.85;11.68;;;;;;;-1.26;52.49;99184.72;10458795;28;20393;-51
2021/01/11 18:10:40;;;;;;;23.83;10.13;;;;;;;-1.22;52.67;99194.84;10460395;28;20045;-49
2021/01/11 18:15:42;;;;;;;25.05;10.55;;;;;;;-1.12;52.42;99195.25;10448119;28;20152;-51
2021/01/11 18:20:46;;;;;;;35.35;12.32;;;;;;;-1.09;52.26;99189.94;10454260;28;20147;-49
2021/01/11 18:25:49;;;;;;;19.00;8.80;;;;;;;-1.07;52.25;99195.88;10460408;28;20132;-51
2021/01/11 18:30:50;;;;;;;25.17;10.10;;;;;;;-1.16;52.51;99185.97;10459766;28;20052;-56
2021/01/11 18:35:52;;;;;;;26.95;10.23;;;;;;;-1.12;52.63;99190.09;10462213;28;20048;-51
2021/01/11 18:40:56;;;;;;;27.75;11.43;;;;;;;-1.05;52.22;99181.16;10458171;28;20044;-50
2021/01/11 18:45:57;;;;;;;;;;;;;;;-1.14;52.35;99194.47;10460110;28;20048;-50
2021/01/11 18:50:59;;;;;;;26.55;11.80;;;;;;;-1.14;52.36;99186.72;10457639;28;19924;-49
2021/01/11 18:56:01;;;;;;;24.83;10.88;;;;;;;-1.25;52.53;99199.28;10457382;28;20053;-50
2021/01/11 19:01:03;;;;;;;35.33;13.90;;;;;;;-1.28;52.76;99192.53;10456628;28;20061;-51
2021/01/11 19:06:05;;;;;;;31.08;12.65;;;;;;;-1.16;52.35;99193.72;10456741;28;20048;-52
2021/01/11 19:11:10;;;;;;;23.05;11.55;;;;;;;-1.11;52.22;99189.16;10485276;28;20516;-50
2021/01/11 19:16:12;;;;;;;36.72;12.10;;;;;;;-1.04;52.20;99193.16;10497563;28;20063;-51
2021/01/11 19:21:16;;;;;;;19.23;8.80;;;;;;;-1.07;52.43;99193.31;10498164;28;20148;-52
2021/01/11 19:26:25;;;;;;;27.25;11.85;;;;;;;-1.16;52.82;99193.72;10498333;28;20072;-52
2021/01/11 19:31:27;;;;;;;30.02;11.88;;;;;;;-1.25;52.81;99196.72;10498902;28;20045;-51
2021/01/11 19:36:35;;;;;;;32.80;13.52;;;;;;;-1.25;52.35;99183.81;10476263;28;20055;-51
2021/01/11 19:41:39;;;;;;;27.55;11.50;;;;;;;-1.27;52.81;99195.94;10456371;28;20183;-49
2021/01/11 19:46:42;;;;;;;29.38;13.02;;;;;;;-1.24;52.57;99183.75;10457372;28;20405;-50
2021/01/11 19:51:44;;;;;;;28.47;12.20;;;;;;;-1.11;52.45;99196.09;10455786;28;20056;-50
2021/01/11 19:56:46;;;;;;;24.45;11.23;;;;;;;-1.10;52.35;99188.28;10455910;28;20045;-49
2021/01/11 20:01:48;;;;;;;34.35;14.65;;;;;;;-1.34;52.17;99179.06;10455330;28;20473;-49
2021/01/11 20:06:52;;;;;;;42.67;14.98;;;;;;;-1.61;52.13;99189.69;10458002;28;20056;-51
2021/01/11 20:11:55;;;;;;;40.22;14.18;;;;;;;-1.72;52.02;99197.06;10488159;28;20385;-49
2021/01/11 20:16:56;;;;;;;40.10;17.85;;;;;;;-1.81;51.84;99187.16;10461682;28;20045;-51
2021/01/11 20:21:58;;;;;;;42.38;15.95;;;;;;;-1.84;52.34;99189.88;10459732;28;20402;-58
2021/01/11 20:27:04;;;;;;;35.85;14.07;;;;;;;-1.95;51.93;99193.72;10453571;28;20382;-49
2021/01/11 20:32:07;;;;;;;34.30;14.38;;;;;;;-1.96;52.19;99194.63;10460848;28;20049;-50
2021/01/11 20:37:10;;;;;;;37.65;14.38;;;;;;;-1.88;52.19;99197.72;10460303;28;20056;-51
2021/01/11 20:42:16;;;;;;;37.00;15.32;;;;;;;-2.08;52.87;99205.44;10460860;28;20059;-51
2021/01/11 20:47:17;;;;;;;38.28;14.55;;;;;;;-2.20;52.98;99213.69;10459998;28;20418;-51
2021/01/11 20:52:19;;;;;;;37.25;15.55;;;;;;;-2.19;53.39;99205.03;10458761;28;20064;-51
2021/01/11 20:57:21;;;;;;;38.85;15.85;;;;;;;-2.08;53.22;99203.69;10459398;28;20045;-51
2021/01/11 21:02:23;;;;;;;36.97;13.65;;;;;;;-2.11;53.28;99197.84;10460226;28;20076;-50
2021/01/11 21:07:25;;;;;;;39.22;13.98;;;;;;;-2.14;53.52;99198.81;10461244;28;20389;-50
2021/01/11 21:12:28;;;;;;;42.03;17.05;;;;;;;-2.13;53.17;99204.78;10500238;28;20082;-49
2021/01/11 21:17:29;;;;;;;37.37;14.77;;;;;;;-2.13;53.34;99209.94;10477499;28;20045;-50
2021/01/11 21:22:33;;;;;;;26.10;10.63;;;;;;;-2.01;53.02;99224.06;10461248;28;20088;-53
2021/01/11 21:27:40;;;;;;;32.47;11.65;;;;;;;-2.18;53.10;99217.88;10461325;28;20131;-49
2021/01/11 21:32:42;;;;;;;34.10;13.07;;;;;;;-2.14;53.41;99213.44;10461009;28;20061;-50
2021/01/11 21:37:45;;;;;;;35.95;12.60;;;;;;;-2.13;53.60;99209.94;10461463;28;20469;-50
2021/01/11 21:42:47;;;;;;;29.02;14.45;;;;;;;-2.12;53.38;99215.03;10459667;28;20052;-50
2021/01/11 21:47:49;;;;;;;28.02;12.13;;;;;;;-2.01;53.22;99224.88;10461300;28;20045;-50
2021/01/11 21:52:51;;;;;;;42.55;16.20;;;;;;;-2.08;52.76;99216.56;10461609;28;20048;-50
2021/01/11 21:57:53;;;;;;;44.38;15.07;;;;;;;-1.98;52.97;99213.63;10459562;28;20131;-50
2021/01/11 22:02:55;;;;;;;44.67;16.80;;;;;;;-1.78;52.45;99210.22;10458398;28;20063;-51
2021/01/11 22:07:57;;;;;;;40.17;14.80;;;;;;;-1.72;52.46;99215.13;10460947;28;20673;-49
2021/01/11 22:12:59;;;;;;;42.47;17.95;;;;;;;-1.66;52.54;99210.53;10491425;28;20052;-51
2021/01/11 22:18:01;;;;;;;32.67;13.27;;;;;;;-1.60;52.69;99213.72;10461791;28;20048;-51
2021/01/11 22:23:03;;;;;;;42.45;14.50;;;;;;;-1.61;52.50;99212.91;10458135;28;20107;-50
2021/01/11 22:28:05;;;;;;;43.53;15.32;;;;;;;-1.56;52.31;99210.13;10458741;28;20037;-50
2021/01/11 22:33:07;;;;;;;35.37;14.30;;;;;;;-1.61;52.24;99210.31;10459431;28;20059;-52
2021/01/11 22:38:09;;;;;;;42.95;14.85;;;;;;;-1.58;51.95;99205.03;10458818;28;20101;-49
2021/01/11 22:43:12;;;;;;;46.80;15.13;;;;;;;-1.58;52.43;99212.75;10458159;28;20056;-49
2021/01/11 22:48:14;;;;;;;28.42;11.85;;;;;;;-1.49;52.50;99212.34;10457438;28;20059;-49
2021/01/11 22:53:16;;;;;;;38.72;14.65;;;;;;;-1.42;52.52;99208.63;10457622;28;20044;-49
2021/01/11 22:58:19;;;;;;;38.40;13.85;;;;;;;-1.39;52.38;99212.78;10457588;28;20045;-51
2021/01/11 23:03:21;;;;;;;36.38;12.88;;;;;;;-1.45;52.56;99213.06;10456258;28;20509;-49
2021/01/11 23:08:22;;;;;;;35.17;14.93;;;;;;;-1.53;52.56;99210.00;10463316;28;20076;-50